createdAt,value
2018-05-13T00:00:48.070Z,5.53
2018-05-13T00:05:49.387Z,5.83
2018-05-13T00:10:50.973Z,5.90
2018-05-13T00:15:53.115Z,5.87
2018-05-13T00:20:54.663Z,5.63
2018-05-13T00:25:56.011Z,5.53
2018-05-13T00:30:57.373Z,5.67
2018-05-13T00:35:58.804Z,6.27
2018-05-13T00:41:00.995Z,6.13
2018-05-13T00:46:03.046Z,5.67
2018-05-13T00:51:04.312Z,5.83
2018-05-13T00:56:06.428Z,6.97
2018-05-13T01:01:08.475Z,6.07
2018-05-13T01:06:09.837Z,6.23
2018-05-13T01:11:11.099Z,5.73
2018-05-13T01:16:12.463Z,6.43
2018-05-13T01:21:13.821Z,5.37
2018-05-13T01:26:15.094Z,6.00
2018-05-13T01:31:16.419Z,5.70
2018-05-13T01:36:17.777Z,6.10
2018-05-13T01:41:19.025Z,5.97
2018-05-13T01:46:20.501Z,5.83
2018-05-13T01:51:21.816Z,6.10
2018-05-13T01:56:23.193Z,6.10
2018-05-13T02:01:25.237Z,5.80
2018-05-13T02:06:26.530Z,6.10
2018-05-13T02:11:27.786Z,6.00
2018-05-13T02:16:29.115Z,5.20
2018-05-13T02:21:30.549Z,5.90
2018-05-13T02:26:31.864Z,6.00
2018-05-13T02:31:33.247Z,5.90
2018-05-13T02:36:35.318Z,5.83
2018-05-13T02:41:36.674Z,5.93
2018-05-13T02:46:38.853Z,5.53
2018-05-13T02:51:40.240Z,5.93
2018-05-13T02:56:42.271Z,5.63
2018-05-13T03:01:43.557Z,5.90
2018-05-13T03:06:45.611Z,6.13
2018-05-13T03:11:46.921Z,5.40
2018-05-13T03:16:49.029Z,6.53
2018-05-13T03:21:50.313Z,6.33
2018-05-13T03:26:52.458Z,5.43
2018-05-13T03:31:54.473Z,5.80
2018-05-13T03:36:56.628Z,6.13
2018-05-13T03:41:58.410Z,6.40
2018-05-13T03:46:59.699Z,5.93
2018-05-13T03:52:00.979Z,6.63
2018-05-13T03:57:02.411Z,6.33
2018-05-13T04:02:03.769Z,6.53
2018-05-13T04:07:05.264Z,6.80
2018-05-13T04:12:18.740Z,6.77
2018-05-13T04:17:20.088Z,6.60
2018-05-13T04:22:21.708Z,6.13
2018-05-13T04:27:23.008Z,6.43
2018-05-13T04:32:24.239Z,6.07
2018-05-13T04:37:25.553Z,5.97
2018-05-13T04:42:26.900Z,6.90
2018-05-13T04:47:28.983Z,6.07
2018-05-13T04:52:30.351Z,5.40
2018-05-13T04:57:31.680Z,5.17
2018-05-13T05:02:32.975Z,5.13
2018-05-13T05:07:34.323Z,4.33
2018-05-13T05:12:35.771Z,4.37
2018-05-13T05:17:37.048Z,4.53
2018-05-13T05:22:38.411Z,4.33
2018-05-13T05:27:39.670Z,4.03
2018-05-13T05:32:41.027Z,4.60
2018-05-13T05:37:42.288Z,4.57
2018-05-13T05:42:43.557Z,4.70
2018-05-13T05:47:44.831Z,3.63
2018-05-13T05:52:46.187Z,4.03
2018-05-13T05:57:47.430Z,4.40
2018-05-13T06:02:48.719Z,3.83
2018-05-13T06:07:50.785Z,3.93
2018-05-13T06:12:52.166Z,4.03
2018-05-13T06:17:53.539Z,3.83
2018-05-13T06:22:55.648Z,3.90
2018-05-13T06:27:57.028Z,3.30
2018-05-13T06:32:59.163Z,3.37
2018-05-13T06:38:00.499Z,3.23
2018-05-13T06:43:02.064Z,3.70
2018-05-13T06:48:03.533Z,3.50
2018-05-13T06:53:04.968Z,4.40
2018-05-13T06:58:06.370Z,4.23
2018-05-13T07:03:07.831Z,4.03
2018-05-13T07:08:09.210Z,3.97
2018-05-13T07:13:11.263Z,5.23
2018-05-13T07:18:12.628Z,4.90
2018-05-13T07:23:14.217Z,5.30
2018-05-13T07:28:15.659Z,5.57
2018-05-13T07:33:16.998Z,5.47
2018-05-13T07:38:18.333Z,5.30
2018-05-13T07:43:19.680Z,6.00
2018-05-13T07:48:21.820Z,6.40
2018-05-13T07:53:23.187Z,6.53
2018-05-13T07:58:24.747Z,5.30
2018-05-13T08:03:26.066Z,5.00
2018-05-13T08:08:27.592Z,4.30
2018-05-13T08:13:29.721Z,5.00
2018-05-13T08:18:31.073Z,4.33
2018-05-13T08:23:32.508Z,4.70
2018-05-13T08:28:34.043Z,4.87
2018-05-13T08:33:35.356Z,5.30
2018-05-13T08:38:37.740Z,6.03
2018-05-13T08:43:39.149Z,6.20
2018-05-13T08:48:41.465Z,5.43
2018-05-13T08:53:42.855Z,4.40
2018-05-13T08:58:45.158Z,5.77
2018-05-13T09:03:46.610Z,5.80
2018-05-13T09:08:48.727Z,4.97
2018-05-13T09:13:50.173Z,4.40
2018-05-13T09:18:52.206Z,4.60
2018-05-13T09:23:53.705Z,3.50
2018-05-13T09:28:55.827Z,3.97
2018-05-13T09:33:57.271Z,3.30
2018-05-13T09:38:59.367Z,2.80
2018-05-13T09:44:01.017Z,2.67
2018-05-13T09:49:03.269Z,3.27
2018-05-13T09:54:04.572Z,2.57
2018-05-13T09:59:06.009Z,3.27
2018-05-13T10:04:10.228Z,2.80
2018-05-13T10:09:11.664Z,2.77
2018-05-13T10:14:12.964Z,2.47
2018-05-13T10:19:14.452Z,2.60
2018-05-13T10:24:15.768Z,2.73
2018-05-13T10:29:17.471Z,3.30
2018-05-13T10:34:20.625Z,3.07
2018-05-13T10:39:22.233Z,3.70
2018-05-13T10:44:25.050Z,4.67
2018-05-13T10:49:26.621Z,3.73
2018-05-13T10:54:29.244Z,4.63
2018-05-13T10:59:30.669Z,4.73
2018-05-13T11:04:32.863Z,4.50
2018-05-13T11:09:36.255Z,4.40
2018-05-13T11:14:38.391Z,4.07
2018-05-13T11:19:39.936Z,4.93
2018-05-13T11:24:41.327Z,4.93
2018-05-13T11:29:42.676Z,5.20
2018-05-13T11:34:44.808Z,6.03
2018-05-13T11:39:46.246Z,7.13
2018-05-13T11:44:47.579Z,6.07
2018-05-13T11:49:48.996Z,7.63
2018-05-13T11:54:50.426Z,6.87
2018-05-13T11:59:51.785Z,8.37
2018-05-13T12:04:53.119Z,7.77
2018-05-13T12:09:55.251Z,7.70
2018-05-13T12:14:56.544Z,8.10
2018-05-13T12:19:58.556Z,8.23
2018-05-13T12:24:59.997Z,7.77
2018-05-13T12:30:01.337Z,5.90
2018-05-13T12:35:02.747Z,6.10
2018-05-13T12:40:04.032Z,5.43
2018-05-13T12:45:05.302Z,5.60
2018-05-13T12:50:06.682Z,3.67
2018-05-13T12:55:07.966Z,3.80
2018-05-13T13:00:09.936Z,4.87
2018-05-13T13:05:11.317Z,4.17
2018-05-13T13:10:12.655Z,4.03
2018-05-13T13:15:14.209Z,3.47
2018-05-13T13:20:21.371Z,3.03
2018-05-13T13:25:22.651Z,2.67
2018-05-13T13:30:24.040Z,2.40
2018-05-13T13:35:25.387Z,2.43
2018-05-13T13:40:26.661Z,2.43
2018-05-13T13:45:28.039Z,2.40
2018-05-13T13:50:29.394Z,1.77
2018-05-13T13:55:30.741Z,1.60
2018-05-13T14:00:32.042Z,1.20
2018-05-13T14:05:34.084Z,1.77
2018-05-13T14:10:35.748Z,2.00
2018-05-13T14:15:37.024Z,1.90
2018-05-13T14:20:38.453Z,1.83
2018-05-13T14:25:39.806Z,1.60
2018-05-13T14:30:41.885Z,1.63
2018-05-13T14:35:43.205Z,1.90
2018-05-13T14:40:44.491Z,2.30
2018-05-13T14:45:46.534Z,2.43
2018-05-13T14:50:47.809Z,2.67
2018-05-13T14:55:49.118Z,2.23
2018-05-13T15:00:50.392Z,2.63
2018-05-13T15:05:51.681Z,3.10
2018-05-13T15:10:53.053Z,4.20
2018-05-13T15:15:54.413Z,3.60
2018-05-13T15:20:55.765Z,3.70
2018-05-13T15:25:57.274Z,4.20
2018-05-13T15:30:58.887Z,5.03
2018-05-13T15:36:00.183Z,5.53
2018-05-13T15:41:01.687Z,6.00
2018-05-13T15:46:03.014Z,6.47
2018-05-13T15:51:05.021Z,7.00
2018-05-13T15:56:06.330Z,6.63
2018-05-13T16:01:07.650Z,5.93
2018-05-13T16:06:09.146Z,6.93
2018-05-13T16:11:10.546Z,7.37
2018-05-13T16:16:12.409Z,7.80
2018-05-13T16:21:13.923Z,7.73
2018-05-13T16:26:15.526Z,9.63
2018-05-13T16:31:16.991Z,9.80
2018-05-13T16:36:18.420Z,9.00
2018-05-13T16:41:19.723Z,10.00
2018-05-13T16:46:21.063Z,11.57
2018-05-13T16:51:22.418Z,12.47
2018-05-13T16:56:24.593Z,12.23
2018-05-13T17:01:25.882Z,13.63
2018-05-13T17:06:27.263Z,10.97
2018-05-13T17:11:28.668Z,13.63
2018-05-13T17:16:29.999Z,14.93
2018-05-13T17:21:31.401Z,17.13
2018-05-13T17:26:32.801Z,17.80
2018-05-13T17:31:34.890Z,15.10
2018-05-13T17:36:36.202Z,18.47
2018-05-13T17:41:37.545Z,18.13
2018-05-13T17:46:39.638Z,18.13
2018-05-13T17:51:41.729Z,18.23
2018-05-13T17:56:43.070Z,17.87
2018-05-13T18:01:44.406Z,15.47
2018-05-13T18:06:45.756Z,17.30
2018-05-13T18:11:47.763Z,16.23
2018-05-13T18:16:49.191Z,16.07
2018-05-13T18:21:50.698Z,16.57
2018-05-13T18:26:52.029Z,16.03
2018-05-13T18:31:53.527Z,17.57
2018-05-13T18:36:54.890Z,14.63
2018-05-13T18:41:56.329Z,15.80
2018-05-13T18:46:57.619Z,16.07
2018-05-13T18:51:58.971Z,17.27
2018-05-13T18:57:00.351Z,16.77
2018-05-13T19:02:02.446Z,18.00
2018-05-13T19:07:04.593Z,15.97
2018-05-13T19:12:06.077Z,17.37
2018-05-13T19:17:07.317Z,18.77
2018-05-13T19:22:10.091Z,18.93
2018-05-13T19:27:11.425Z,18.43
2018-05-13T19:32:12.849Z,19.70
2018-05-13T19:37:14.541Z,20.57
2018-05-13T19:42:15.895Z,21.33
2018-05-13T19:47:18.128Z,22.00
2018-05-13T19:52:20.354Z,22.93
2018-05-13T19:57:21.710Z,23.17
2018-05-13T20:02:23.307Z,22.27
2018-05-13T20:07:25.522Z,22.70
2018-05-13T20:12:27.225Z,23.20
2018-05-13T20:17:29.381Z,22.07
2018-05-13T20:22:31.897Z,21.67
2018-05-13T20:27:33.205Z,20.33
2018-05-13T20:32:35.130Z,20.20
2018-05-13T20:37:36.451Z,20.53
2018-05-13T20:42:37.907Z,19.43
2018-05-13T20:47:48.225Z,18.47
2018-05-13T20:52:49.769Z,17.57
2018-05-13T20:57:51.164Z,18.13
2018-05-13T21:02:53.387Z,20.10
2018-05-13T21:07:55.680Z,17.80
2018-05-13T21:12:57.520Z,19.20
2018-05-13T21:17:59.862Z,18.97
2018-05-13T21:23:01.332Z,18.97
2018-05-13T21:28:02.766Z,21.67
2018-05-13T21:33:04.853Z,20.00
2018-05-13T21:38:06.285Z,23.10
2018-05-13T21:43:08.723Z,23.13
2018-05-13T21:48:11.171Z,23.10
2018-05-13T21:53:12.681Z,25.43
2018-05-13T21:58:14.043Z,18.67
2018-05-13T22:03:15.457Z,18.40
2018-05-13T22:08:18.611Z,18.50
2018-05-13T22:13:20.383Z,17.63
2018-05-13T22:18:22.354Z,17.23
2018-05-13T22:23:24.770Z,15.97
2018-05-13T22:28:27.117Z,15.03
2018-05-13T22:33:29.156Z,19.80
2018-05-13T22:38:30.488Z,19.20
2018-05-13T22:43:32.969Z,17.47
2018-05-13T22:48:35.371Z,16.20
2018-05-13T22:53:36.808Z,12.97
2018-05-13T22:58:38.292Z,11.93
2018-05-13T23:03:39.977Z,11.80
2018-05-13T23:08:41.553Z,12.27
2018-05-13T23:13:43.940Z,13.00
2018-05-13T23:18:45.411Z,13.70
2018-05-13T23:23:46.774Z,11.33
2018-05-13T23:28:48.130Z,10.23
2018-05-13T23:33:49.579Z,11.03
2018-05-13T23:38:51.148Z,9.70
2018-05-13T23:43:52.535Z,10.27
2018-05-13T23:48:53.867Z,10.40
2018-05-13T23:53:55.338Z,10.73
2018-05-13T23:58:57.813Z,10.00
